GMT,Max TemperatureF,Mean TemperatureF,Min TemperatureF,Max Dew PointF,MeanDew PointF,Min DewpointF,Max Humidity, Mean Humidity, Min Humidity, Max Sea Level PressureIn, Mean Sea Level PressureIn, Min Sea Level PressureIn, Max VisibilityMiles, Mean VisibilityMiles, Min VisibilityMiles, Max Wind SpeedMPH, Mean Wind SpeedMPH, Max Gust SpeedMPH,PrecipitationIn, CloudCover, Events, WindDirDegrees
2012-10-1,53,48,44,46,45,43,93,82,72,29.59,29.53,29.47,6,6,6,21,15,,0.00,4,Rain,243
2012-10-2,53,50,46,46,44,43,93,81,71,29.50,29.43,29.33,6,6,6,16,12,,0.00,3,Rain,212
2012-10-3,51,45,39,45,42,37,93,85,71,29.47,29.37,29.27,6,6,6,18,14,,0.00,3,Rain,269
2012-10-4,51,42,33,45,40,34,100,82,66,29.62,29.58,29.53,6,6,6,15,7,,0.00,2,Rain,266
2012-10-5,53,47,41,43,39,36,93,73,54,29.65,29.56,29.44,6,6,6,13,8,,0.00,2,,285
2012-10-6,53,45,37,43,38,34,93,71,54,29.86,29.82,29.74,6,6,6,14,6,,0.00,1,,288
2012-10-7,57,49,41,45,40,36,87,75,62,30.18,30.14,30.12,6,6,6,14,8,,0.00,1,,248
2012-10-8,53,42,32,41,36,30,100,74,58,30.04,30.01,29.98,6,6,6,13,8,,0.00,2,,303
2012-10-9,48,39,30,39,34,28,100,76,58,30.09,30.06,30.04,,,,8,4,,0.00,,,272
2012-10-10,48,40,32,39,36,30,100,83,66,29.98,29.92,29.83,6,6,6,7,3,,0.00,1,,290
2012-10-11,50,48,46,48,46,45,100,90,82,29.68,29.62,29.53,6,5,1,16,8,,0.00,6,Rain,92
2012-10-12,50,47,44,48,45,41,100,93,87,29.44,29.40,29.36,6,5,3,22,15,,0.00,6,Rain,250
2012-10-13,48,46,44,45,43,41,93,89,81,29.53,29.52,29.50,6,5,2,12,7,,0.00,6,Rain,254
2012-10-14,46,42,39,43,40,36,93,86,76,29.68,29.65,29.62,6,6,6,10,6,,0.00,5,Rain,18
2012-10-15,46,39,32,36,33,30,93,77,61,29.50,29.44,29.42,6,6,6,13,6,,0.00,2,,295
2012-10-16,44,40,35,37,36,34,93,85,76,29.47,29.35,29.27,6,6,5,13,8,,0.00,4,Rain,324
2012-10-17,44,38,32,41,38,30,93,89,81,29.44,29.37,29.33,6,5,4,15,8,,0.00,5,Fog-Rain,52
2012-10-18,50,47,44,45,43,41,93,87,76,29.65,29.51,29.42,6,6,5,13,8,,0.00,3,Rain,79
2012-10-19,48,45,42,45,41,39,87,82,76,29.80,29.77,29.74,6,6,6,14,11,,0.00,5,Rain,52
2012-10-20,51,48,44,48,44,41,100,89,71,29.92,29.85,29.77,6,4,0,17,5,,0.00,4,Fog,254
2012-10-21,51,44,37,46,43,37,100,93,82,30.21,30.17,30.12,6,4,0,6,3,,0.00,2,Fog,117
2012-10-22,48,44,41,45,42,39,100,90,81,30.39,30.33,30.27,6,5,2,8,4,,0.00,6,,50
2012-10-23,50,47,44,50,46,45,100,95,93,30.42,30.39,30.36,6,4,1,6,3,,0.00,6,,217
2012-10-24,51,46,42,46,43,41,100,85,71,30.36,30.30,30.24,6,6,1,6,2,,0.00,2,Fog,196
2012-10-25,50,44,37,43,36,28,93,72,61,30.27,30.20,30.15,6,6,6,16,4,28,0.00,3,Rain,343
2012-10-26,42,37,32,28,26,21,87,64,42,30.18,30.11,30.06,6,6,4,15,7,,0.00,2,Snow,314
2012-10-27,44,40,35,34,31,28,81,69,57,30.21,30.17,30.09,6,6,6,16,9,,0.00,1,,268
2012-10-28,48,44,39,43,41,37,100,89,76,29.62,29.54,29.50,6,6,6,18,11,,0.00,3,,269
2012-10-29,51,43,35,43,36,32,93,82,66,29.77,29.72,29.68,6,6,6,10,5,,0.00,2,,287
2012-10-30,46,42,32,43,41,28,93,87,81,29.50,29.29,29.06,6,6,6,25,10,,0.00,4,Rain,244
2012-10-31,44,40,37,41,38,36,100,90,81,28.85,28.79,28.74,6,6,4,16,9,,0.00,4,Rain,259